Time;durP1;ratioP1;P1;durP2;ratioP2;P2;SDS_P1;SDS_P2;PMS_P1;PMS_P2;Temp;Humidity;BMP_temperature;BMP_pressure;BME280_temperature;BME280_humidity;BME280_pressure;Samples;Min_cycle;Max_cycle;Signal;HPM_P1;HPM_P2
2021/08/15 00:00:17;;;;;;;;;;;21.30;99.90;;;;;;4934355;29;19949;-73
2021/08/15 00:02:48;;;;;;;;;;;21.30;99.90;;;;;;4918899;29;20318;-73
2021/08/15 00:05:20;;;;;;;;;;;21.30;99.90;;;;;;4919315;29;19933;-73
2021/08/15 00:07:47;;;;;;;;;;;21.20;99.90;;;;;;4934479;29;20396;-73
2021/08/15 00:10:18;;;;;;;;;;;21.20;99.90;;;;;;4934365;29;19944;-72
2021/08/15 00:12:45;;;;;;;;;;;21.20;99.90;;;;;;4933884;29;20304;-73
2021/08/15 00:15:12;;;;;;;;;;;21.20;99.90;;;;;;4934224;29;19934;-74
2021/08/15 00:17:44;;;;;;;;;;;21.20;99.90;;;;;;4934018;29;19933;-73
2021/08/15 00:20:11;;;;;;;;;;;21.20;99.90;;;;;;4934032;29;20308;-73
2021/08/15 00:22:43;;;;;;;;;;;21.10;99.90;;;;;;4933798;29;19927;-72
2021/08/15 00:25:11;;;;;;;;;;;21.10;99.90;;;;;;4934132;29;19962;-73
2021/08/15 00:27:46;;;;;;;;;;;21.00;99.90;;;;;;4935164;29;19927;-73
2021/08/15 00:30:14;;;;;;;;;;;21.00;99.90;;;;;;4934002;29;19927;-73
2021/08/15 00:32:42;;;;;;;;;;;20.90;99.90;;;;;;4918200;29;20159;-74
2021/08/15 00:35:14;;;;;;;;;;;20.90;99.90;;;;;;4918824;29;20009;-73
2021/08/15 00:37:41;;;;;;;;;;;20.90;99.90;;;;;;4933967;29;19934;-73
2021/08/15 00:40:09;;;;;;;;;;;20.80;99.90;;;;;;4933818;29;19926;-73
2021/08/15 00:42:41;;;;;;;;;;;20.80;99.90;;;;;;4933707;29;19927;-73
2021/08/15 00:45:08;;;;;;;;;;;20.80;99.90;;;;;;4933907;29;19933;-74
2021/08/15 00:47:35;;;;;;;;;;;20.80;99.90;;;;;;4933708;29;19926;-74
2021/08/15 00:50:07;;;;;;;;;;;20.80;99.90;;;;;;4933862;29;19930;-73
2021/08/15 00:52:41;;;;;;;;;;;20.80;99.90;;;;;;4934998;29;20380;-73
2021/08/15 00:55:13;;;;;;;;;;;20.80;99.90;;;;;;4918649;29;19931;-73
2021/08/15 00:57:46;;;;;;;;;;;20.80;99.90;;;;;;4918588;29;20041;-73
2021/08/15 01:00:18;;;;;;;;;;;20.70;99.90;;;;;;4933239;29;20029;-73
2021/08/15 01:02:48;;;;;;;;;;;20.70;99.90;;;;;;4932740;29;19931;-73
2021/08/15 01:05:20;;;;;;;;;;;20.70;99.90;;;;;;4933175;29;20393;-74
2021/08/15 01:07:51;;;;;;;;;;;20.60;99.90;;;;;;4921785;29;20493;-74
2021/08/15 01:10:23;;;;;;;;;;;20.60;99.90;;;;;;4937331;29;19942;-74
2021/08/15 01:12:55;;;;;;;;;;;20.60;99.90;;;;;;4937343;29;20013;-73
2021/08/15 01:15:21;;;;;;;;;;;20.60;99.90;;;;;;4921694;29;20037;-74
2021/08/15 01:17:53;;;;;;;;;;;20.60;99.90;;;;;;4921943;29;19930;-73
2021/08/15 01:20:24;;;;;;;;;;;20.50;99.90;;;;;;4921949;29;19931;-73
2021/08/15 01:22:51;;;;;;;;;;;20.50;99.90;;;;;;4936660;29;19981;-73
2021/08/15 01:25:23;;;;;;;;;;;20.50;99.90;;;;;;4936907;29;19958;-73
2021/08/15 01:27:50;;;;;;;;;;;20.50;99.90;;;;;;4936688;29;19958;-74
2021/08/15 01:30:22;;;;;;;;;;;20.50;99.90;;;;;;4936582;29;19993;-73
2021/08/15 01:32:49;;;;;;;;;;;20.50;99.90;;;;;;4936388;29;19990;-74
2021/08/15 01:35:16;;;;;;;;;;;20.40;99.90;;;;;;4937100;29;19927;-73
2021/08/15 01:37:53;;;;;;;;;;;20.50;99.90;;;;;;4937170;29;19926;-74
2021/08/15 01:40:20;;;;;;;;;;;20.40;99.90;;;;;;4936630;29;20402;-73
2021/08/15 01:42:51;;;;;;;;;;;20.40;99.90;;;;;;4936466;29;19935;-73
2021/08/15 01:45:18;;;;;;;;;;;20.40;99.90;;;;;;4937134;29;20026;-73
2021/08/15 01:47:49;;;;;;;;;;;20.50;99.90;;;;;;4936982;29;19926;-73
2021/08/15 01:50:16;;;;;;;;;;;20.60;99.90;;;;;;4938150;29;19927;-71
2021/08/15 01:52:48;;;;;;;;;;;20.60;99.90;;;;;;4937773;29;19927;-75
2021/08/15 01:55:14;;;;;;;;;;;20.50;99.90;;;;;;4936985;29;19969;-71
2021/08/15 01:57:41;;;;;;;;;;;20.60;99.90;;;;;;4920743;29;19962;-73
2021/08/15 02:00:08;;;;;;;;;;;20.50;99.90;;;;;;4936609;29;19962;-73
2021/08/15 02:02:42;;;;;;;;;;;20.40;99.90;;;;;;4921087;29;19926;-72
2021/08/15 02:05:20;;;;;;;;;;;20.40;99.90;;;;;;4936812;29;19931;-73
2021/08/15 02:07:56;;;;;;;;;;;20.40;99.90;;;;;;4936501;29;20453;-73
2021/08/15 02:10:27;;;;;;;;;;;20.30;99.90;;;;;;4920673;29;19958;-73
2021/08/15 02:13:00;;;;;;;;;;;20.30;99.90;;;;;;4936357;29;20382;-73
2021/08/15 02:15:32;;;;;;;;;;;20.20;99.90;;;;;;4921431;29;19927;-73
2021/08/15 02:18:00;;;;;;;;;;;20.20;99.90;;;;;;4936365;29;20021;-73
2021/08/15 02:20:33;;;;;;;;;;;20.20;99.90;;;;;;4936620;29;19931;-72
2021/08/15 02:23:00;;;;;;;;;;;20.20;99.90;;;;;;4920507;29;19986;-73
2021/08/15 02:25:31;;;;;;;;;;;20.10;99.90;;;;;;4921268;29;20007;-73
2021/08/15 02:27:58;;;;;;;;;;;20.00;99.90;;;;;;4920579;29;19927;-73
2021/08/15 02:30:30;;;;;;;;;;;20.00;99.90;;;;;;4936236;29;20021;-73
2021/08/15 02:33:01;;;;;;;;;;;20.00;99.90;;;;;;4935968;29;19933;-73
2021/08/15 02:35:34;;;;;;;;;;;19.90;99.90;;;;;;4936656;29;20385;-72
2021/08/15 02:38:00;;;;;;;;;;;19.90;99.90;;;;;;4937406;29;19933;-73
2021/08/15 02:40:27;;;;;;;;;;;19.90;99.90;;;;;;4936397;29;19927;-73
2021/08/15 02:43:00;;;;;;;;;;;19.80;99.90;;;;;;4937145;29;19962;-72
2021/08/15 02:45:27;;;;;;;;;;;19.80;99.90;;;;;;4935794;29;19955;-73
2021/08/15 02:47:59;;;;;;;;;;;19.80;99.90;;;;;;4920945;29;19959;-73
2021/08/15 02:50:25;;;;;;;;;;;19.80;99.90;;;;;;4937229;29;19931;-73
2021/08/15 02:52:52;;;;;;;;;;;19.80;99.90;;;;;;4935700;29;19934;-73
2021/08/15 02:55:24;;;;;;;;;;;19.80;99.90;;;;;;4935972;29;19934;-73
2021/08/15 02:57:51;;;;;;;;;;;19.90;99.90;;;;;;4935828;29;20025;-73
2021/08/15 03:00:25;;;;;;;;;;;19.80;99.90;;;;;;4935818;29;19969;-73
2021/08/15 03:02:57;;;;;;;;;;;19.80;99.90;;;;;;4935562;29;19966;-72
2021/08/15 03:05:24;;;;;;;;;;;19.80;99.90;;;;;;4935884;29;20013;-73
2021/08/15 03:07:51;;;;;;;;;;;19.80;99.90;;;;;;4935695;29;19926;-73
2021/08/15 03:10:20;;;;;;;;;;;19.80;99.90;;;;;;4935557;29;19927;-72
2021/08/15 03:12:46;;;;;;;;;;;19.70;99.90;;;;;;4935170;29;20025;-73
2021/08/15 03:15:13;;;;;;;;;;;19.60;99.90;;;;;;4919709;29;19933;-73
2021/08/15 03:17:44;;;;;;;;;;;19.60;99.90;;;;;;4935499;29;19933;-72
2021/08/15 03:20:16;;;;;;;;;;;19.60;99.90;;;;;;4936529;29;19973;-73
2021/08/15 03:22:48;;;;;;;;;;;19.60;99.90;;;;;;4935236;29;20193;-73
2021/08/15 03:25:20;;;;;;;;;;;19.70;99.90;;;;;;4920289;29;19977;-73
2021/08/15 03:27:51;;;;;;;;;;;19.60;99.90;;;;;;4920190;29;20317;-73
2021/08/15 03:30:23;;;;;;;;;;;19.70;99.90;;;;;;4934653;29;19927;-72
2021/08/15 03:32:50;;;;;;;;;;;19.70;99.90;;;;;;4934947;29;19973;-73
2021/08/15 03:35:22;;;;;;;;;;;19.70;99.90;;;;;;4935150;29;20030;-73
2021/08/15 03:37:55;;;;;;;;;;;19.80;99.90;;;;;;4935291;29;19927;-73
2021/08/15 03:40:26;;;;;;;;;;;19.70;99.90;;;;;;4919999;29;19974;-73
2021/08/15 03:42:53;;;;;;;;;;;19.70;99.90;;;;;;4934707;29;19935;-73
2021/08/15 03:45:20;;;;;;;;;;;19.70;99.90;;;;;;4936289;29;19927;-72
2021/08/15 03:47:52;;;;;;;;;;;19.70;99.90;;;;;;4919831;29;19927;-72
2021/08/15 03:50:18;;;;;;;;;;;19.70;99.90;;;;;;4934942;29;20045;-71
2021/08/15 03:52:45;;;;;;;;;;;19.70;99.90;;;;;;4934901;29;20350;-73
2021/08/15 03:55:17;;;;;;;;;;;19.60;99.90;;;;;;4919625;29;19933;-72
2021/08/15 03:57:44;;;;;;;;;;;19.60;99.90;;;;;;4934978;29;19982;-73
2021/08/15 04:00:16;;;;;;;;;;;19.60;99.90;;;;;;4934612;29;19930;-72
2021/08/15 04:02:48;;;;;;;;;;;19.60;99.90;;;;;;4919244;29;19926;-73
2021/08/15 04:05:19;;;;;;;;;;;19.60;99.90;;;;;;4934586;29;19926;-72
2021/08/15 04:07:46;;;;;;;;;;;19.60;99.90;;;;;;4934504;29;19937;-73
2021/08/15 04:10:18;;;;;;;;;;;19.60;99.90;;;;;;4934516;29;20021;-73
2021/08/15 04:12:49;;;;;;;;;;;19.60;99.90;;;;;;4919098;29;19970;-73
2021/08/15 04:15:21;;;;;;;;;;;19.50;99.90;;;;;;4934521;29;19966;-73
2021/08/15 04:17:54;;;;;;;;;;;19.50;99.90;;;;;;4934527;29;19930;-73
2021/08/15 04:20:26;;;;;;;;;;;19.50;99.90;;;;;;4935447;29;19955;-73
2021/08/15 04:22:53;;;;;;;;;;;19.40;99.90;;;;;;4935199;29;19931;-72
2021/08/15 04:25:24;;;;;;;;;;;19.40;99.90;;;;;;4934222;29;20021;-73
2021/08/15 04:27:51;;;;;;;;;;;19.40;99.90;;;;;;4934052;29;19927;-73
2021/08/15 04:30:23;;;;;;;;;;;19.30;99.90;;;;;;4934408;29;19930;-73
2021/08/15 04:32:49;;;;;;;;;;;19.30;99.90;;;;;;4933977;29;19927;-73
2021/08/15 04:35:16;;;;;;;;;;;19.30;99.90;;;;;;4934118;29;20376;-73
2021/08/15 04:37:48;;;;;;;;;;;19.30;99.90;;;;;;4934074;29;20029;-72
2021/08/15 04:40:14;;;;;;;;;;;19.30;99.90;;;;;;4917780;29;19930;-73
2021/08/15 04:42:46;;;;;;;;;;;19.30;99.90;;;;;;4918608;29;19930;-73
2021/08/15 04:45:18;;;;;;;;;;;19.30;99.90;;;;;;4935305;29;20022;-73
2021/08/15 04:47:49;;;;;;;;;;;19.30;99.90;;;;;;4918943;29;20412;-73
2021/08/15 04:50:16;;;;;;;;;;;19.30;99.90;;;;;;4935322;29;20413;-73
2021/08/15 04:52:43;;;;;;;;;;;19.30;99.90;;;;;;4933592;29;20025;-72
2021/08/15 04:55:15;;;;;;;;;;;19.40;99.90;;;;;;4935214;29;19933;-73
2021/08/15 04:57:42;;;;;;;;;;;19.30;99.90;;;;;;4933779;29;20014;-73
2021/08/15 05:00:09;;;;;;;;;;;19.40;99.90;;;;;;4917936;29;20492;-73
2021/08/15 05:02:41;;;;;;;;;;;19.30;99.90;;;;;;4918450;29;20198;-73
2021/08/15 05:05:08;;;;;;;;;;;19.30;99.90;;;;;;4935035;29;20025;-73
2021/08/15 05:07:35;;;;;;;;;;;19.30;99.90;;;;;;4933942;29;19927;-73
2021/08/15 05:10:09;;;;;;;;;;;19.30;99.90;;;;;;4935058;29;19927;-73
2021/08/15 05:12:42;;;;;;;;;;;19.30;99.90;;;;;;4933508;29;19958;-72
2021/08/15 05:15:14;;;;;;;;;;;19.30;99.90;;;;;;4935081;29;19949;-72
2021/08/15 05:17:41;;;;;;;;;;;19.40;99.90;;;;;;4934886;29;19927;-72
2021/08/15 05:20:12;;;;;;;;;;;19.40;99.90;;;;;;4933694;29;19934;-71
2021/08/15 05:22:44;;;;;;;;;;;19.30;99.90;;;;;;4933287;29;19974;-73
2021/08/15 05:25:16;;;;;;;;;;;19.30;99.90;;;;;;4933773;29;20029;-73
2021/08/15 05:27:43;;;;;;;;;;;19.40;99.90;;;;;;4933796;29;20377;-72
2021/08/15 05:30:09;;;;;;;;;;;19.40;99.90;;;;;;4933375;29;20391;-73
2021/08/15 05:32:42;;;;;;;;;;;19.40;99.90;;;;;;4933296;29;19927;-72
2021/08/15 05:35:09;;;;;;;;;;;19.50;99.90;;;;;;4933743;29;19974;-74
2021/08/15 05:37:41;;;;;;;;;;;19.50;99.90;;;;;;4918527;29;19927;-73
2021/08/15 05:40:13;;;;;;;;;;;19.60;99.90;;;;;;4918285;29;19933;-73
2021/08/15 05:42:40;;;;;;;;;;;19.60;99.90;;;;;;4934236;29;19974;-71
2021/08/15 05:45:07;;;;;;;;;;;19.70;99.90;;;;;;4933552;29;20025;-73
2021/08/15 05:47:33;;;;;;;;;;;19.70;99.90;;;;;;4934589;29;19974;-73
2021/08/15 05:50:04;;;;;;;;;;;19.80;99.90;;;;;;4933793;29;19926;-72
2021/08/15 05:52:31;;;;;;;;;;;19.80;99.90;;;;;;4934508;29;20409;-73
2021/08/15 05:55:03;;;;;;;;;;;19.90;99.90;;;;;;4936857;29;19927;-71
2021/08/15 05:57:36;;;;;;;;;;;19.90;99.90;;;;;;4921835;29;20025;-72
2021/08/15 06:00:03;;;;;;;;;;;19.90;99.90;;;;;;4920908;29;20013;-73
2021/08/15 06:02:38;;;;;;;;;;;20.00;99.90;;;;;;4921693;29;20386;-73
2021/08/15 06:05:05;;;;;;;;;;;20.00;99.90;;;;;;4936993;29;20355;-73
2021/08/15 06:07:37;;;;;;;;;;;20.10;99.90;;;;;;4936537;29;19927;-73
2021/08/15 06:10:09;;;;;;;;;;;20.10;99.90;;;;;;4937751;29;19927;-73
2021/08/15 06:12:36;;;;;;;;;;;20.20;99.90;;;;;;4936347;29;19974;-71
2021/08/15 06:15:13;;;;;;;;;;;20.30;99.90;;;;;;4936636;29;19962;-73
2021/08/15 06:17:45;;;;;;;;;;;20.30;99.90;;;;;;4921317;29;19927;-73
2021/08/15 06:20:17;;;;;;;;;;;20.40;99.90;;;;;;4936556;29;20405;-73
2021/08/15 06:22:44;;;;;;;;;;;20.40;99.90;;;;;;4936139;29;20021;-73
2021/08/15 06:25:12;;;;;;;;;;;20.50;99.90;;;;;;4936289;29;20017;-73
2021/08/15 06:27:44;;;;;;;;;;;20.50;99.90;;;;;;4936411;29;20010;-73
2021/08/15 06:30:12;;;;;;;;;;;20.60;99.90;;;;;;4936377;29;20437;-73
2021/08/15 06:32:46;;;;;;;;;;;20.60;99.90;;;;;;4920165;29;20099;-73
2021/08/15 06:35:23;;;;;;;;;;;20.70;99.90;;;;;;4920950;29;20416;-71
2021/08/15 06:37:55;;;;;;;;;;;20.70;99.90;;;;;;4937453;29;20342;-73
2021/08/15 06:40:28;;;;;;;;;;;20.70;99.90;;;;;;4935930;29;20008;-73
2021/08/15 06:43:05;;;;;;;;;;;20.80;99.90;;;;;;4935592;29;19931;-73
2021/08/15 06:45:31;;;;;;;;;;;20.90;99.90;;;;;;4935957;29;20390;-73
2021/08/15 06:48:03;;;;;;;;;;;20.90;99.90;;;;;;4935897;29;19969;-73
2021/08/15 06:50:35;;;;;;;;;;;21.00;99.90;;;;;;4935777;29;19927;-73
2021/08/15 06:53:11;;;;;;;;;;;21.10;99.90;;;;;;4919729;29;20232;-73
2021/08/15 06:55:38;;;;;;;;;;;21.10;99.90;;;;;;4935458;29;19930;-73
2021/08/15 06:58:10;;;;;;;;;;;21.20;99.90;;;;;;4935693;29;19926;-73
2021/08/15 07:00:36;;;;;;;;;;;21.30;99.90;;;;;;4936144;29;19927;-73
2021/08/15 07:03:08;;;;;;;;;;;21.40;99.90;;;;;;4919130;29;20403;-73
2021/08/15 07:05:40;;;;;;;;;;;21.50;99.90;;;;;;4934502;29;20025;-73
2021/08/15 07:08:06;;;;;;;;;;;21.50;99.90;;;;;;4918916;29;19962;-73
2021/08/15 07:10:38;;;;;;;;;;;21.60;99.90;;;;;;4919588;29;19931;-73
2021/08/15 07:13:05;;;;;;;;;;;21.70;99.90;;;;;;4934415;29;20304;-73
2021/08/15 07:15:32;;;;;;;;;;;21.80;99.90;;;;;;4935920;29;19933;-73
2021/08/15 07:18:04;;;;;;;;;;;21.80;99.90;;;;;;4934676;29;19933;-73
2021/08/15 07:20:31;;;;;;;;;;;21.90;99.90;;;;;;4934342;29;19927;-73
2021/08/15 07:22:58;;;;;;;;;;;22.00;99.90;;;;;;4934288;29;19931;-73
2021/08/15 07:25:30;;;;;;;;;;;22.10;99.90;;;;;;4934646;29;19927;-72
2021/08/15 07:28:01;;;;;;;;;;;22.20;99.90;;;;;;4934471;29;19933;-73
2021/08/15 07:30:34;;;;;;;;;;;22.30;99.90;;;;;;4919281;29;20389;-72
2021/08/15 07:33:06;;;;;;;;;;;22.40;99.90;;;;;;4934047;29;19927;-72
2021/08/15 07:35:38;;;;;;;;;;;22.40;99.90;;;;;;4934239;29;19927;-74
2021/08/15 07:38:10;;;;;;;;;;;22.60;99.90;;;;;;4934014;29;19978;-72
2021/08/15 07:40:41;;;;;;;;;;;22.70;99.90;;;;;;4934139;29;19931;-71
2021/08/15 07:43:13;;;;;;;;;;;22.70;99.90;;;;;;4935169;29;19927;-73
2021/08/15 07:45:40;;;;;;;;;;;22.80;99.90;;;;;;4918299;29;19935;-71
2021/08/15 07:48:06;;;;;;;;;;;22.90;99.90;;;;;;4935581;29;20035;-73
2021/08/15 07:50:39;;;;;;;;;;;23.00;99.90;;;;;;4935174;29;19931;-71
2021/08/15 07:53:24;;;;;;;;;;;23.10;99.90;;;;;;4918519;29;19974;-72
2021/08/15 07:55:51;;;;;;;;;;;23.20;99.90;;;;;;4918090;29;20367;-71
2021/08/15 07:58:18;;;;;;;;;;;23.30;99.90;;;;;;4933867;29;19927;-73
2021/08/15 08:00:50;;;;;;;;;;;23.40;99.90;;;;;;4935031;29;19966;-73
2021/08/15 08:03:17;;;;;;;;;;;23.60;99.90;;;;;;4934082;29;19958;-73
2021/08/15 08:05:45;;;;;;;;;;;23.70;99.90;;;;;;4934329;29;19978;-74
2021/08/15 08:08:11;;;;;;;;;;;23.80;99.90;;;;;;4918382;29;19926;-72
2021/08/15 08:11:05;;;;;;;;;;;23.90;99.90;;;;;;4935596;29;19981;-73
2021/08/15 08:13:31;;;;;;;;;;;24.00;99.90;;;;;;4935579;29;20030;-73
2021/08/15 08:16:02;;;;;;;;;;;24.20;99.90;;;;;;4934188;29;19944;-73
2021/08/15 08:18:29;;;;;;;;;;;24.30;99.90;;;;;;4934152;29;19926;-73
2021/08/15 08:20:56;;;;;;;;;;;24.40;99.90;;;;;;4934050;29;20274;-73
2021/08/15 08:23:23;;;;;;;;;;;24.50;99.90;;;;;;4934172;29;19960;-73
2021/08/15 08:25:55;;;;;;;;;;;24.60;99.90;;;;;;4934496;29;19926;-72
2021/08/15 08:28:28;;;;;;;;;;;24.80;99.90;;;;;;4934033;29;19926;-71
2021/08/15 08:31:00;;;;;;;;;;;24.90;99.90;;;;;;4933772;29;19933;-71
2021/08/15 08:33:27;;;;;;;;;;;25.00;99.90;;;;;;4933861;29;20374;-73
2021/08/15 08:35:59;;;;;;;;;;;25.10;99.90;;;;;;4933543;29;19931;-73
2021/08/15 08:38:25;;;;;;;;;;;25.20;99.90;;;;;;4934646;29;19927;-72
2021/08/15 08:40:58;;;;;;;;;;;25.30;99.90;;;;;;4934514;29;20287;-74
2021/08/15 08:43:26;;;;;;;;;;;25.50;99.90;;;;;;4933409;29;19927;-73
2021/08/15 08:45:58;;;;;;;;;;;25.60;99.90;;;;;;4933360;29;19926;-71
2021/08/15 08:48:30;;;;;;;;;;;25.70;99.90;;;;;;4933415;29;20342;-73
2021/08/15 08:50:57;;;;;;;;;;;25.80;99.90;;;;;;4933195;29;20436;-73
2021/08/15 08:53:24;;;;;;;;;;;25.90;99.90;;;;;;4933491;29;20303;-72
2021/08/15 08:55:55;;;;;;;;;;;26.00;99.90;;;;;;4918165;29;19934;-73
2021/08/15 08:58:27;;;;;;;;;;;26.10;99.90;;;;;;4933311;29;19933;-73
2021/08/15 09:00:59;;;;;;;;;;;26.10;99.90;;;;;;4934365;29;19941;-71
2021/08/15 09:03:30;;;;;;;;;;;26.20;99.90;;;;;;4933137;29;19927;-73
2021/08/15 09:05:57;;;;;;;;;;;26.20;99.90;;;;;;4933265;29;20315;-73
2021/08/15 09:08:33;;;;;;;;;;;26.40;99.90;;;;;;4933355;29;19934;-73
2021/08/15 09:11:16;;;;;;;;;;;26.50;99.90;;;;;;4917822;29;19933;-73
2021/08/15 09:14:04;;;;;;;;;;;26.60;99.90;;;;;;4933259;29;19927;-73
2021/08/15 09:16:49;;;;;;;;;;;26.60;99.90;;;;;;4933388;29;19941;-73
2021/08/15 09:19:30;;;;;;;;;;;26.50;99.90;;;;;;4933050;29;20290;-73
2021/08/15 09:22:22;;;;;;;;;;;26.50;99.90;;;;;;4933024;29;19933;-73
2021/08/15 09:24:50;;;;;;;;;;;26.70;99.90;;;;;;4933415;29;20411;-71
2021/08/15 09:27:18;;;;;;;;;;;26.90;99.90;;;;;;4934280;29;20417;-72
2021/08/15 09:30:08;;;;;;;;;;;27.10;99.90;;;;;;4937014;29;19931;-71
2021/08/15 09:32:45;;;;;;;;;;;27.10;99.90;;;;;;4937165;29;19930;-73
2021/08/15 09:35:16;;;;;;;;;;;27.00;99.90;;;;;;4937619;29;20408;-73
2021/08/15 09:37:54;;;;;;;;;;;27.00;99.90;;;;;;4922313;29;19927;-73
2021/08/15 09:40:30;;;;;;;;;;;27.10;99.90;;;;;;4922294;29;19927;-73
2021/08/15 09:42:58;;;;;;;;;;;27.20;99.90;;;;;;4938338;29;19933;-73
2021/08/15 09:45:35;;;;;;;;;;;27.30;99.90;;;;;;4937399;29;20017;-73
2021/08/15 09:48:16;;;;;;;;;;;27.50;99.90;;;;;;4938524;29;19926;-73
2021/08/15 09:50:59;;;;;;;;;;;27.50;99.90;;;;;;4937237;29;20055;-73
2021/08/15 09:53:32;;;;;;;;;;;27.50;99.90;;;;;;4937633;29;19926;-72
2021/08/15 09:56:04;;;;;;;;;;;27.60;99.90;;;;;;4938862;29;20424;-75
2021/08/15 09:58:36;;;;;;;;;;;27.70;99.90;;;;;;4937222;29;19926;-74
2021/08/15 10:01:04;;;;;;;;;;;27.80;99.90;;;;;;4936921;29;20338;-74
2021/08/15 10:03:36;;;;;;;;;;;27.90;99.90;;;;;;4937669;29;20350;-74
2021/08/15 10:06:12;;;;;;;;;;;28.00;99.90;;;;;;4922506;29;20025;-74
2021/08/15 10:08:40;;;;;;;;;;;28.10;99.90;;;;;;4937391;29;20030;-73
2021/08/15 10:11:06;;;;;;;;;;;28.10;99.90;;;;;;4921147;29;20029;-74
2021/08/15 10:13:33;;;;;;;;;;;28.20;99.90;;;;;;4921220;29;19930;-74
2021/08/15 10:16:07;;;;;;;;;;;28.40;99.90;;;;;;4937142;29;20313;-75
2021/08/15 10:18:37;;;;;;;;;;;28.30;99.90;;;;;;4936610;29;20455;-74
2021/08/15 10:21:14;;;;;;;;;;;28.30;99.90;;;;;;4936338;29;19927;-75
2021/08/15 10:23:42;;;;;;;;;;;28.30;99.90;;;;;;4936400;29;20009;-75
2021/08/15 10:26:25;;;;;;;;;;;28.30;99.90;;;;;;4936739;29;19926;-74
2021/08/15 10:28:53;;;;;;;;;;;28.40;99.90;;;;;;4936820;29;20283;-75
2021/08/15 10:31:19;;;;;;;;;;;28.40;99.90;;;;;;4936016;29;19938;-74
2021/08/15 10:33:52;;;;;;;;;;;28.40;99.90;;;;;;4936412;29;19981;-74
2021/08/15 10:36:24;;;;;;;;;;;28.60;99.90;;;;;;4936419;29;19927;-75
2021/08/15 10:38:52;;;;;;;;;;;28.70;99.90;;;;;;4937362;29;19927;-76
2021/08/15 10:41:43;;;;;;;;;;;28.80;99.90;;;;;;4935783;29;19926;-74
2021/08/15 10:44:10;;;;;;;;;;;28.80;99.90;;;;;;4936097;29;20469;-75
2021/08/15 10:47:04;;;;;;;;;;;28.80;99.90;;;;;;4936807;29;19933;-75
2021/08/15 10:49:50;;;;;;;;;;;28.90;99.90;;;;;;4935105;29;19933;-75
2021/08/15 10:52:31;;;;;;;;;;;29.00;99.90;;;;;;4920423;29;19927;-74
2021/08/15 10:55:04;;;;;;;;;;;29.10;99.90;;;;;;4935842;29;19949;-74
2021/08/15 10:57:42;;;;;;;;;;;29.20;99.90;;;;;;4935715;29;19933;-74
2021/08/15 11:00:28;;;;;;;;;;;29.30;99.90;;;;;;4935436;29;20029;-75
2021/08/15 11:03:12;;;;;;;;;;;29.30;99.90;;;;;;4934956;29;20017;-74
2021/08/15 11:05:44;;;;;;;;;;;29.40;99.90;;;;;;4935377;29;19927;-74
2021/08/15 11:08:34;;;;;;;;;;;29.50;99.90;;;;;;4920120;29;19927;-74
2021/08/15 11:11:06;;;;;;;;;;;29.60;99.90;;;;;;4935093;29;19927;-74
2021/08/15 11:13:38;;;;;;;;;;;29.70;99.90;;;;;;4935104;29;19938;-73
2021/08/15 11:16:22;;;;;;;;;;;29.70;99.90;;;;;;4935205;29;19935;-74
2021/08/15 11:19:10;;;;;;;;;;;29.80;99.90;;;;;;4934994;29;19926;-74
2021/08/15 11:22:15;;;;;;;;;;;29.90;99.90;;;;;;4934747;29;19933;-74
2021/08/15 11:25:00;;;;;;;;;;;30.00;99.90;;;;;;4881167;29;19927;-74
2021/08/15 11:27:29;;;;;;;;;;;30.10;99.90;;;;;;4931756;29;20304;-74
2021/08/15 11:30:08;;;;;;;;;;;30.10;99.90;;;;;;4936155;29;19931;-74
2021/08/15 11:32:40;;;;;;;;;;;30.10;99.90;;;;;;4934335;29;19927;-74
2021/08/15 11:35:12;;;;;;;;;;;30.00;99.90;;;;;;4934689;29;20397;-74
2021/08/15 11:37:40;;;;;;;;;;;30.00;99.90;;;;;;4934565;29;19933;-75
2021/08/15 11:40:12;;;;;;;;;;;30.10;99.90;;;;;;4918882;29;20364;-74
2021/08/15 11:42:39;;;;;;;;;;;30.10;99.90;;;;;;4934125;29;19927;-75
2021/08/15 11:45:11;;;;;;;;;;;30.00;99.90;;;;;;4934366;29;19930;-74
2021/08/15 11:47:38;;;;;;;;;;;29.90;99.90;;;;;;4935633;29;19969;-75
2021/08/15 11:50:16;;;;;;;;;;;29.70;99.90;;;;;;4935310;29;20013;-76
2021/08/15 11:52:43;;;;;;;;;;;29.50;99.90;;;;;;4935741;29;20021;-74
2021/08/15 11:55:18;;;;;;;;;;;29.40;99.90;;;;;;4935821;29;19933;-74
2021/08/15 11:57:45;;;;;;;;;;;29.20;99.90;;;;;;4934285;29;19933;-73
2021/08/15 12:00:24;;;;;;;;;;;29.10;99.90;;;;;;4934141;29;20386;-74
2021/08/15 12:03:08;;;;;;;;;;;29.00;99.90;;;;;;4933793;29;19937;-74
2021/08/15 12:05:45;;;;;;;;;;;29.00;99.90;;;;;;4934241;29;19927;-75
2021/08/15 12:08:18;;;;;;;;;;;29.00;99.90;;;;;;4935307;29;20370;-74
2021/08/15 12:10:50;;;;;;;;;;;29.00;99.90;;;;;;4934104;29;19927;-73
2021/08/15 12:13:23;;;;;;;;;;;28.90;99.90;;;;;;4935166;29;19933;-75
2021/08/15 12:15:59;;;;;;;;;;;28.80;99.90;;;;;;4933287;29;20137;-75
2021/08/15 12:18:40;;;;;;;;;;;28.70;99.90;;;;;;4918752;29;20309;-75
2021/08/15 12:21:15;;;;;;;;;;;28.70;99.90;;;;;;4933975;29;19933;-75
2021/08/15 12:24:04;;;;;;;;;;;28.70;99.90;;;;;;4933984;29;19931;-75
2021/08/15 12:26:33;;;;;;;;;;;28.60;99.90;;;;;;4910753;29;19952;-75
2021/08/15 12:29:01;;;;;;;;;;;28.40;99.90;;;;;;4933905;29;20457;-76
2021/08/15 12:31:29;;;;;;;;;;;28.30;99.90;;;;;;4933638;29;20014;-75
2021/08/15 12:34:09;;;;;;;;;;;28.10;99.90;;;;;;4933949;29;20001;-75
2021/08/15 12:36:56;;;;;;;;;;;28.00;99.90;;;;;;4934155;29;20406;-75
2021/08/15 12:39:27;;;;;;;;;;;28.00;99.90;;;;;;4918850;29;19926;-75
2021/08/15 12:41:58;;;;;;;;;;;28.00;99.90;;;;;;4933503;29;19926;-75
2021/08/15 12:44:26;;;;;;;;;;;27.60;99.90;;;;;;4934707;29;19986;-74
2021/08/15 12:47:07;;;;;;;;;;;27.30;99.90;;;;;;4934923;29;19949;-75
2021/08/15 12:49:44;;;;;;;;;;;27.10;99.90;;;;;;4934205;29;19949;-74
2021/08/15 12:52:25;;;;;;;;;;;27.00;99.90;;;;;;4933929;29;20037;-75
2021/08/15 12:55:01;;;;;;;;;;;27.10;99.90;;;;;;4934574;29;20324;-74
2021/08/15 12:57:33;;;;;;;;;;;27.30;99.90;;;;;;4934061;29;19946;-73
2021/08/15 13:00:00;;;;;;;;;;;27.40;99.90;;;;;;4935067;29;19965;-73
2021/08/15 13:02:27;;;;;;;;;;;27.50;99.90;;;;;;4917012;29;19965;-73
2021/08/15 13:04:55;;;;;;;;;;;27.50;99.90;;;;;;4934084;29;19937;-73
2021/08/15 13:07:24;;;;;;;;;;;27.60;99.90;;;;;;4918253;29;20389;-73
2021/08/15 13:09:51;;;;;;;;;;;27.50;99.90;;;;;;4933705;29;20476;-73
2021/08/15 13:12:23;;;;;;;;;;;27.50;99.90;;;;;;4934802;29;19954;-73
2021/08/15 13:14:55;;;;;;;;;;;27.30;99.90;;;;;;4933930;29;19999;-73
2021/08/15 13:17:26;;;;;;;;;;;27.30;99.90;;;;;;4934199;29;19934;-73
2021/08/15 13:19:58;;;;;;;;;;;27.20;99.90;;;;;;4934124;29;20021;-73
2021/08/15 13:22:30;;;;;;;;;;;27.20;99.90;;;;;;4934261;29;19927;-74
2021/08/15 13:24:58;;;;;;;;;;;27.20;99.90;;;;;;4933918;29;20030;-73
2021/08/15 13:27:29;;;;;;;;;;;27.20;99.90;;;;;;4918940;29;20013;-74
2021/08/15 13:30:02;;;;;;;;;;;27.20;99.90;;;;;;4933758;29;19978;-74
2021/08/15 13:32:34;;;;;;;;;;;27.10;99.90;;;;;;4918104;29;19978;-74
2021/08/15 13:35:01;;;;;;;;;;;27.00;99.90;;;;;;4933647;29;19927;-73
2021/08/15 13:37:28;;;;;;;;;;;27.00;99.90;;;;;;4933778;29;20302;-74
2021/08/15 13:40:00;;;;;;;;;;;26.90;99.90;;;;;;4933373;29;20006;-74
2021/08/15 13:42:33;;;;;;;;;;;26.80;99.90;;;;;;4934547;29;19966;-74
2021/08/15 13:45:00;;;;;;;;;;;26.70;99.90;;;;;;4917707;29;20033;-74
2021/08/15 13:47:27;;;;;;;;;;;26.60;99.90;;;;;;4934829;29;20384;-74
2021/08/15 13:49:54;;;;;;;;;;;26.50;99.90;;;;;;4933654;29;20025;-74
2021/08/15 13:52:25;;;;;;;;;;;26.40;99.90;;;;;;4934420;29;19926;-74
2021/08/15 13:54:53;;;;;;;;;;;26.30;99.90;;;;;;4933554;29;19982;-72
2021/08/15 13:57:19;;;;;;;;;;;26.10;99.90;;;;;;4934775;29;20034;-74
2021/08/15 13:59:50;;;;;;;;;;;26.00;99.90;;;;;;4917439;29;19927;-74
2021/08/15 14:02:22;;;;;;;;;;;25.80;99.90;;;;;;4932622;29;19938;-74
2021/08/15 14:04:49;;;;;;;;;;;25.40;99.90;;;;;;4932884;29;19930;-73
2021/08/15 14:07:23;;;;;;;;;;;24.80;99.90;;;;;;4934403;29;19934;-74
2021/08/15 14:09:51;;;;;;;;;;;23.50;99.90;;;;;;4920820;29;20025;-73
2021/08/15 14:12:23;;;;;;;;;;;22.10;99.90;;;;;;4920313;29;19973;-74
2021/08/15 14:14:51;;;;;;;;;;;21.20;99.90;;;;;;4937695;29;19998;-75
2021/08/15 14:17:17;;;;;;;;;;;20.90;99.90;;;;;;4920648;29;19926;-74
2021/08/15 14:19:44;;;;;;;;;;;20.70;99.90;;;;;;4920547;29;19927;-73
2021/08/15 14:22:16;;;;;;;;;;;20.80;99.90;;;;;;4921115;29;19927;-74
2021/08/15 14:24:47;;;;;;;;;;;20.70;99.90;;;;;;4936470;29;19933;-74
2021/08/15 14:27:14;;;;;;;;;;;20.60;99.90;;;;;;4936449;29;20279;-74
2021/08/15 14:29:46;;;;;;;;;;;20.60;99.90;;;;;;4936291;29;20304;-74
2021/08/15 14:32:12;;;;;;;;;;;20.60;99.90;;;;;;4937039;29;20297;-75
2021/08/15 14:34:39;;;;;;;;;;;20.60;99.90;;;;;;4936030;29;19927;-74
2021/08/15 14:37:12;;;;;;;;;;;20.50;99.90;;;;;;4936161;29;19997;-74
2021/08/15 14:39:44;;;;;;;;;;;20.60;99.90;;;;;;4937549;29;19927;-73